Time;durP1;ratioP1;P1;durP2;ratioP2;P2;SDS_P1;SDS_P2;PMS_P1;PMS_P2;Temp;Humidity;BMP_temperature;BMP_pressure;BME280_temperature;BME280_humidity;BME280_pressure;Samples;Min_cycle;Max_cycle;Signal;HPM_P1;HPM_P2
2023/06/12 00:01:51;;;;;;;8.13;6.00;;;;;;;13.22;87.46;97062.72;5031901;28;20038;-59
2023/06/12 00:04:17;;;;;;;7.53;5.90;;;;;;;13.31;86.86;97071.13;5034328;28;20120;-60
2023/06/12 00:06:44;;;;;;;8.23;5.70;;;;;;;13.16;87.22;97064.63;5030040;28;20136;-60
2023/06/12 00:09:11;;;;;;;7.80;6.38;;;;;;;12.86;88.85;97080.75;5028665;28;20049;-59
2023/06/12 00:11:40;;;;;;;10.27;5.65;;;;;;;12.80;89.97;97081.84;5033979;28;20037;-59
2023/06/12 00:14:07;;;;;;;8.48;6.57;;;;;;;12.88;89.06;97072.31;5028176;28;20041;-61
2023/06/12 00:16:33;;;;;;;8.38;6.28;;;;;;;12.66;90.94;97072.63;5031873;28;20049;-60
2023/06/12 00:19:00;;;;;;;8.45;6.40;;;;;;;12.79;89.87;97073.97;5027196;28;20041;-60
2023/06/12 00:21:27;;;;;;;7.43;5.82;;;;;;;12.90;89.71;97067.41;5028822;28;20450;-60
2023/06/12 00:23:53;;;;;;;10.90;6.25;;;;;;;12.93;89.16;97068.81;5028637;28;20037;-60
2023/06/12 00:26:20;;;;;;;8.10;5.85;;;;;;;12.81;89.67;97069.91;5032664;28;20091;-60
2023/06/12 00:28:47;;;;;;;8.68;5.97;;;;;;;12.87;89.64;97062.56;5032290;28;20061;-60
2023/06/12 00:31:14;;;;;;;9.07;7.10;;;;;;;12.88;89.63;97059.56;5035364;28;20156;-60
2023/06/12 00:33:41;;;;;;;7.05;5.75;;;;;;;12.95;88.87;97061.16;5030583;28;20050;-59
2023/06/12 00:36:08;;;;;;;7.72;5.82;;;;;;;12.96;88.36;97062.78;5034762;28;20053;-58
2023/06/12 00:38:34;;;;;;;7.38;5.90;;;;;;;12.90;88.65;97067.41;5043635;28;20072;-60
2023/06/12 00:41:01;;;;;;;8.98;6.13;;;;;;;12.91;89.06;97060.91;5032331;28;20402;-59
2023/06/12 00:43:27;;;;;;;7.35;5.93;;;;;;;12.90;88.69;97058.47;5027263;28;20056;-60
2023/06/12 00:45:55;;;;;;;7.07;5.68;;;;;;;12.72;90.31;97061.47;5030846;28;20067;-60
2023/06/12 00:48:21;;;;;;;8.18;6.05;;;;;;;12.79;89.22;97063.91;5035278;28;20430;-59
2023/06/12 00:50:48;;;;;;;7.60;5.97;;;;;;;12.60;90.59;97063.66;5037962;28;20104;-60
2023/06/12 00:53:15;;;;;;;9.95;5.90;;;;;;;12.50;91.43;97061.78;5034594;28;20065;-60
2023/06/12 00:55:42;;;;;;;9.43;5.93;;;;;;;12.48;91.96;97062.06;5038643;28;20051;-60
2023/06/12 00:58:08;;;;;;;8.90;6.20;;;;;;;12.59;90.67;97062.84;5035800;28;20048;-60
2023/06/12 01:00:38;;;;;;;7.18;5.65;;;;;;;12.57;90.21;97056.88;5028725;28;20041;-60
2023/06/12 01:03:07;;;;;;;8.30;5.68;;;;;;;12.49;90.54;97058.25;5033760;28;20041;-59
2023/06/12 01:05:42;;;;;;;6.90;5.38;;;;;;;12.56;90.47;97057.13;5028822;28;20420;-59
2023/06/12 01:08:17;;;;;;;8.50;6.40;;;;;;;12.58;90.62;97061.25;5030270;28;20531;-59
2023/06/12 01:10:56;;;;;;;8.23;5.75;;;;;;;12.75;89.68;97054.66;5020391;28;20041;-59
2023/06/12 01:13:23;;;;;;;7.82;5.45;;;;;;;12.71;89.21;97061.75;5030767;28;20132;-60
2023/06/12 01:15:50;;;;;;;8.88;5.68;;;;;;;12.36;91.54;97059.59;5026466;28;20144;-61
2023/06/12 01:18:17;;;;;;;7.57;5.88;;;;;;;12.64;89.39;97064.75;5034889;28;20045;-60
2023/06/12 01:20:43;;;;;;;8.18;5.85;;;;;;;12.51;90.37;97059.88;5028657;28;20045;-60
2023/06/12 01:23:39;;;;;;;9.23;5.80;;;;;;;12.43;91.12;97062.06;5026027;28;20401;-60
2023/06/12 01:26:40;;;;;;;7.10;5.10;;;;;;;12.30;91.62;97063.41;5030167;28;20588;-60
2023/06/12 01:29:29;;;;;;;8.10;5.40;;;;;;;12.31;92.70;97061.50;5033801;28;20073;-59
2023/06/12 01:32:12;;;;;;;10.75;6.25;;;;;;;12.16;91.46;97059.59;5031184;28;20041;-60
2023/06/12 01:34:50;;;;;;;7.53;5.85;;;;;;;12.36;91.48;97059.59;5032657;28;20071;-61
2023/06/12 01:37:43;;;;;;;8.60;5.55;;;;;;;12.31;91.66;97059.59;5032266;28;20041;-61
2023/06/12 01:40:18;;;;;;;8.50;5.97;;;;;;;12.20;92.22;97064.19;5028408;28;20107;-60
2023/06/12 01:42:46;;;;;;;6.75;4.88;;;;;;;12.32;91.80;97058.50;5033351;28;20048;-60
2023/06/12 01:45:13;;;;;;;7.97;5.47;;;;;;;12.36;91.62;97062.31;5034951;28;20099;-61
2023/06/12 01:47:41;;;;;;;7.38;5.50;;;;;;;12.43;91.20;97064.78;5025514;28;20128;-61
2023/06/12 01:50:10;;;;;;;8.38;5.57;;;;;;;12.46;90.52;97061.50;5031507;28;20499;-60
2023/06/12 01:52:38;;;;;;;7.35;5.47;;;;;;;12.34;91.42;97064.50;5026836;28;20526;-61
2023/06/12 01:55:05;;;;;;;9.50;5.88;;;;;;;12.23;91.99;97057.41;5025756;28;20472;-60
2023/06/12 01:57:32;;;;;;;7.97;5.50;;;;;;;12.28;91.30;97064.75;5024187;28;20095;-60
2023/06/12 02:00:00;;;;;;;7.53;5.73;;;;;;;12.30;90.94;97060.69;5035921;28;20044;-60
2023/06/12 02:02:32;;;;;;;8.65;6.05;;;;;;;12.36;90.86;97056.88;5039186;28;20057;-60
2023/06/12 02:04:59;;;;;;;7.38;5.43;;;;;;;12.55;89.97;97060.94;5033426;28;20496;-59
2023/06/12 02:07:26;;;;;;;8.43;5.00;;;;;;;12.52;90.01;97058.78;5026769;28;20080;-60
2023/06/12 02:09:52;;;;;;;7.03;5.20;;;;;;;12.44;90.53;97055.53;5030391;28;20041;-60
2023/06/12 02:12:19;;;;;;;10.38;5.65;;;;;;;12.47;89.59;97055.00;5034817;28;20476;-60
2023/06/12 02:14:47;;;;;;;7.70;5.15;;;;;;;12.31;90.09;97056.88;5026768;28;20037;-60
2023/06/12 02:17:17;;;;;;;6.97;5.28;;;;;;;12.31;90.92;97059.59;5029373;28;20049;-64
2023/06/12 02:19:46;;;;;;;7.85;4.85;;;;;;;12.40;90.73;97059.88;5038769;28;20037;-61
2023/06/12 02:22:13;;;;;;;7.07;5.25;;;;;;;12.26;90.95;97059.59;5033616;28;20141;-61
2023/06/12 02:24:39;;;;;;;6.93;4.75;;;;;;;12.13;92.57;97060.97;5029922;28;20558;-59
2023/06/12 02:27:06;;;;;;;8.02;5.28;;;;;;;12.17;91.77;97061.22;5032486;28;20102;-61
2023/06/12 02:29:33;;;;;;;6.78;5.13;;;;;;;12.16;92.32;97062.31;5023930;28;20072;-61
2023/06/12 02:32:00;;;;;;;8.23;5.35;;;;;;;12.19;92.32;97059.03;5023515;28;20034;-61
2023/06/12 02:34:27;;;;;;;;;;;;;;;12.08;92.44;97060.94;5028824;28;20073;-60
2023/06/12 02:36:53;;;;;;;7.32;5.32;;;;;;;12.15;92.24;97064.19;5033562;28;19920;-60
2023/06/12 02:39:23;;;;;;;6.80;5.07;;;;;;;12.07;92.49;97060.13;5038240;28;20520;-60
2023/06/12 02:41:51;;;;;;;6.88;5.05;;;;;;;12.10;91.88;97059.56;5012819;28;20258;-59
2023/06/12 02:44:18;;;;;;;6.97;4.88;;;;;;;12.08;92.93;97063.63;5026845;28;20575;-61
2023/06/12 02:46:56;;;;;;;7.75;5.30;;;;;;;12.22;91.20;97055.78;5029679;28;20552;-60
2023/06/12 02:49:44;;;;;;;6.97;5.17;;;;;;;12.09;91.48;97063.38;5027725;28;20088;-59
2023/06/12 02:52:16;;;;;;;7.35;5.05;;;;;;;12.08;92.59;97063.63;5029145;28;20037;-60
2023/06/12 02:54:43;;;;;;;7.53;5.32;;;;;;;11.99;92.17;97062.50;5030466;28;20759;-60
2023/06/12 02:57:10;;;;;;;6.47;4.60;;;;;;;11.82;93.39;97060.84;5024035;28;20141;-60
2023/06/12 02:59:36;;;;;;;7.35;5.63;;;;;;;11.86;93.60;97066.56;5024638;28;20045;-59
2023/06/12 03:02:09;;;;;;;9.13;5.43;;;;;;;12.00;92.24;97064.97;5024415;28;20053;-59
2023/06/12 03:04:42;;;;;;;7.55;4.97;;;;;;;12.03;92.14;97059.00;5026038;28;20064;-60
2023/06/12 03:07:12;;;;;;;10.30;5.43;;;;;;;12.10;91.95;97061.50;5028274;28;20046;-60
2023/06/12 03:09:40;;;;;;;7.05;5.32;;;;;;;12.13;91.45;97070.97;5023645;28;20073;-60
2023/06/12 03:12:07;;;;;;;8.13;5.60;;;;;;;12.19;91.23;97072.59;5025360;28;20168;-60
2023/06/12 03:14:34;;;;;;;10.32;5.80;;;;;;;12.25;90.51;97074.25;5023285;28;20136;-60
2023/06/12 03:17:02;;;;;;;6.88;5.28;;;;;;;12.36;90.00;97075.88;5023991;28;20424;-60
2023/06/12 03:19:29;;;;;;;9.13;5.90;;;;;;;12.32;89.22;97074.00;5037484;28;20119;-60
2023/06/12 03:21:55;;;;;;;8.15;5.43;;;;;;;12.15;91.40;97079.66;5039299;28;20040;-60
2023/06/12 03:24:24;;;;;;;8.27;5.93;;;;;;;11.95;92.62;97078.53;5043256;28;20044;-60
2023/06/12 03:26:50;;;;;;;9.20;5.90;;;;;;;11.81;93.87;97087.19;5028039;28;20042;-59
2023/06/12 03:29:17;;;;;;;7.00;5.53;;;;;;;11.80;94.20;97082.81;5037357;28;20543;-59
2023/06/12 03:31:44;;;;;;;10.60;5.90;;;;;;;11.94;92.83;97083.13;5029318;28;20072;-61
2023/06/12 03:34:16;;;;;;;8.03;5.33;;;;;;;11.92;93.07;97093.44;5023696;28;20069;-61
2023/06/12 03:36:43;;;;;;;8.88;6.53;;;;;;;11.83;93.45;97090.44;5023483;28;20061;-60
2023/06/12 03:39:13;;;;;;;9.88;7.22;;;;;;;11.84;93.18;97096.69;5031551;28;20091;-60
2023/06/12 03:41:51;;;;;;;9.85;6.30;;;;;;;11.89;93.40;97099.41;5038712;28;20095;-61
2023/06/12 03:44:18;;;;;;;7.97;5.88;;;;;;;11.98;92.53;97097.00;5024818;28;20065;-59
2023/06/12 03:46:46;;;;;;;11.05;6.13;;;;;;;12.06;91.63;97099.19;5023753;28;20168;-60
2023/06/12 03:49:13;;;;;;;8.38;6.05;;;;;;;12.09;92.28;97095.94;5034774;28;20041;-60
2023/06/12 03:51:41;;;;;;;8.55;6.32;;;;;;;11.99;92.39;97101.31;5027287;28;20328;-59
2023/06/12 03:54:08;;;;;;;8.63;6.22;;;;;;;11.94;94.04;97095.91;5032251;28;20053;-60
2023/06/12 03:56:34;;;;;;;8.02;6.22;;;;;;;11.86;93.86;97105.34;5026212;28;20054;-60
2023/06/12 03:59:01;;;;;;;9.38;6.00;;;;;;;11.83;94.58;97111.31;5031893;28;20045;-60
2023/06/12 04:01:28;;;;;;;14.45;6.13;;;;;;;11.79;94.80;97108.31;5027036;28;20029;-60
2023/06/12 04:03:55;;;;;;;9.90;6.93;;;;;;;11.88;94.57;97111.34;5027235;28;20683;-60
2023/06/12 04:06:22;;;;;;;15.10;8.18;;;;;;;12.06;93.57;97114.66;5029128;28;20042;-60
2023/06/12 04:08:51;;;;;;;10.82;7.07;;;;;;;12.17;92.93;97120.94;5027076;28;20111;-59
2023/06/12 04:11:19;;;;;;;10.50;6.38;;;;;;;12.19;93.61;97119.56;5027672;28;20073;-61
2023/06/12 04:13:45;;;;;;;7.57;5.90;;;;;;;12.35;91.88;97122.31;5028340;28;20050;-61
2023/06/12 04:16:12;;;;;;;8.02;6.18;;;;;;;12.38;92.09;97129.91;5028596;28;20099;-61
2023/06/12 04:18:39;;;;;;;9.32;5.90;;;;;;;12.56;91.09;97120.44;5028098;28;20432;-60
2023/06/12 04:21:07;;;;;;;8.65;5.82;;;;;;;12.61;90.64;97131.28;5030728;28;20567;-60
2023/06/12 04:23:37;;;;;;;8.93;6.05;;;;;;;12.61;90.80;97142.16;5023945;28;20033;-60
2023/06/12 04:26:05;;;;;;;8.02;5.57;;;;;;;12.77;89.94;97138.63;5029367;28;20045;-60
2023/06/12 04:28:38;;;;;;;8.25;6.28;;;;;;;12.78;90.05;97135.63;5026662;28;20043;-60
2023/06/12 04:31:04;;;;;;;8.00;6.03;;;;;;;12.93;89.88;97134.00;5026657;28;20056;-60
2023/06/12 04:33:32;;;;;;;7.13;5.40;;;;;;;12.97;89.28;97133.19;5028026;28;20143;-60
2023/06/12 04:36:03;;;;;;;8.40;6.10;;;;;;;13.01;88.98;97130.72;5028883;28;20508;-60
2023/06/12 04:38:36;;;;;;;8.70;5.65;;;;;;;13.02;89.53;97135.09;5028159;28;20041;-59
2023/06/12 04:41:03;;;;;;;7.78;5.82;;;;;;;13.15;89.36;97139.13;5030451;28;20064;-59
2023/06/12 04:43:30;;;;;;;7.28;5.40;;;;;;;13.23;89.22;97140.50;5027274;28;20037;-60
2023/06/12 04:45:57;;;;;;;8.95;5.85;;;;;;;13.32;89.17;97129.84;5027968;28;20037;-60
2023/06/12 04:48:24;;;;;;;7.05;5.75;;;;;;;13.45;88.48;97137.44;5028650;28;20523;-60
2023/06/12 04:50:53;;;;;;;10.73;6.82;;;;;;;13.58;88.77;97137.97;5017648;28;20046;-60
2023/06/12 04:53:29;;;;;;;8.45;5.57;;;;;;;13.70;87.78;97138.47;5025227;28;20041;-59
2023/06/12 04:55:57;;;;;;;8.55;5.80;;;;;;;13.78;89.04;97142.50;5021501;28;20041;-60
2023/06/12 04:58:24;;;;;;;8.80;5.93;;;;;;;13.86;89.03;97147.38;5030803;28;20041;-60
2023/06/12 05:00:55;;;;;;;8.82;5.68;;;;;;;13.98;87.03;97140.81;5020475;28;20042;-60
2023/06/12 05:03:22;;;;;;;8.90;5.38;;;;;;;14.09;86.65;97139.66;5034095;28;20625;-61
2023/06/12 05:05:54;;;;;;;10.30;5.93;;;;;;;14.24;85.93;97140.66;5023224;28;20045;-61
2023/06/12 05:08:21;;;;;;;9.90;5.65;;;;;;;14.41;85.17;97141.09;5030561;28;20041;-60
2023/06/12 05:10:47;;;;;;;10.80;6.25;;;;;;;14.56;84.30;97142.09;5024441;28;20136;-60
2023/06/12 05:13:14;;;;;;;10.93;6.10;;;;;;;14.72;83.13;97147.41;5025147;28;20048;-60
2023/06/12 05:15:42;;;;;;;9.77;5.15;;;;;;;14.81;85.17;97156.63;5031954;28;20603;-61
2023/06/12 05:18:09;;;;;;;9.73;5.38;;;;;;;14.88;86.87;97151.66;5028237;28;20042;-61
2023/06/12 05:20:36;;;;;;;7.85;5.28;;;;;;;14.93;86.59;97162.53;5029056;28;20091;-61
2023/06/12 05:23:04;;;;;;;7.82;5.43;;;;;;;15.11;85.34;97156.66;5027470;28;20053;-61
2023/06/12 05:25:31;;;;;;;6.40;4.25;;;;;;;15.22;84.53;97158.19;5034063;28;20110;-60
2023/06/12 05:27:59;;;;;;;10.02;5.32;;;;;;;15.52;81.83;97158.97;5028460;28;20056;-60
2023/06/12 05:30:25;;;;;;;12.65;5.90;;;;;;;15.83;77.98;97150.44;5027003;28;20111;-60
2023/06/12 05:32:52;;;;;;;10.00;5.85;;;;;;;16.14;75.69;97159.38;5019830;28;20041;-60
2023/06/12 05:35:19;;;;;;;6.90;5.10;;;;;;;16.31;74.46;97159.69;5027334;28;20049;-60
2023/06/12 05:37:46;;;;;;;7.03;5.90;;;;;;;16.45;73.70;97154.28;5030963;28;20136;-60
2023/06/12 05:40:13;;;;;;;7.82;5.40;;;;;;;16.54;72.73;97159.88;5029751;28;20321;-60
2023/06/12 05:42:42;;;;;;;7.47;5.85;;;;;;;16.60;72.13;97161.44;5030922;28;20041;-61
2023/06/12 05:45:09;;;;;;;6.90;5.60;;;;;;;16.74;71.87;97160.69;5027720;28;20072;-60
2023/06/12 05:47:35;;;;;;;6.47;4.72;;;;;;;16.83;71.04;97164.38;5028921;28;20044;-61
2023/06/12 05:50:03;;;;;;;8.30;5.22;;;;;;;16.95;71.00;97158.44;5027348;28;20622;-61
2023/06/12 05:52:30;;;;;;;7.38;5.20;;;;;;;17.06;70.42;97161.84;5028942;28;20068;-61
2023/06/12 05:54:57;;;;;;;9.50;4.88;;;;;;;17.19;69.75;97160.25;5030590;28;20404;-61
2023/06/12 05:57:23;;;;;;;9.15;5.57;;;;;;;17.21;68.91;97154.47;5027310;28;20038;-60
2023/06/12 05:59:52;;;;;;;8.45;4.82;;;;;;;17.27;68.70;97162.28;5026244;28;20523;-61
2023/06/12 06:02:20;;;;;;;10.27;5.45;;;;;;;17.34;68.88;97166.56;5032016;28;20047;-61
2023/06/12 06:04:48;;;;;;;8.55;5.22;;;;;;;17.39;68.46;97160.97;5026667;28;20053;-61
2023/06/12 06:07:15;;;;;;;7.95;5.13;;;;;;;17.46;68.25;97166.88;5025448;28;20048;-59
2023/06/12 06:09:46;;;;;;;6.78;4.80;;;;;;;17.52;67.94;97160.22;5030208;28;21154;-61
2023/06/12 06:12:12;;;;;;;10.23;5.30;;;;;;;17.63;67.15;97166.31;5024807;28;20088;-60
2023/06/12 06:14:39;;;;;;;12.00;5.90;;;;;;;17.71;67.29;97159.28;5012309;28;20049;-60
2023/06/12 06:17:05;;;;;;;10.02;5.05;;;;;;;17.81;67.18;97161.03;5024695;28;20045;-60
2023/06/12 06:19:32;;;;;;;7.40;5.10;;;;;;;17.84;67.01;97160.41;5023396;28;20467;-60
2023/06/12 06:21:59;;;;;;;7.55;5.53;;;;;;;17.92;67.25;97161.63;5028342;28;20056;-60
2023/06/12 06:24:27;;;;;;;9.95;5.50;;;;;;;17.99;66.53;97167.47;5024190;28;20048;-60
2023/06/12 06:26:55;;;;;;;11.70;5.10;;;;;;;17.99;67.16;97170.22;5024318;28;20558;-61
2023/06/12 06:29:22;;;;;;;9.10;5.60;;;;;;;18.07;67.13;97174.19;5026828;28;20143;-60
2023/06/12 06:31:49;;;;;;;9.65;5.22;;;;;;;18.24;67.08;97167.31;5025666;28;20044;-60
2023/06/12 06:34:16;;;;;;;7.50;5.43;;;;;;;18.37;65.67;97171.13;5028719;28;20048;-59
2023/06/12 06:36:43;;;;;;;8.95;5.43;;;;;;;18.42;66.44;97171.81;5029247;28;20033;-60
2023/06/12 06:39:10;;;;;;;10.73;5.57;;;;;;;18.48;64.82;97172.53;5026039;28;20407;-61
2023/06/12 06:41:37;;;;;;;9.05;5.40;;;;;;;18.51;64.44;97173.81;5027489;28;20043;-61
2023/06/12 06:44:04;;;;;;;8.13;5.22;;;;;;;18.57;64.39;97183.53;5024268;28;20451;-61
2023/06/12 06:46:31;;;;;;;7.88;5.63;;;;;;;18.54;64.12;97176.75;5023275;28;20338;-61
2023/06/12 06:48:59;;;;;;;8.15;5.40;;;;;;;18.69;65.02;97175.59;5029179;28;20045;-61
2023/06/12 06:51:26;;;;;;;7.68;5.13;;;;;;;18.69;64.97;97175.59;5025184;28;20131;-61
2023/06/12 06:53:53;;;;;;;6.97;5.47;;;;;;;18.84;63.51;97174.41;5026318;28;20049;-61
2023/06/12 06:56:20;;;;;;;8.07;5.50;;;;;;;18.92;63.66;97180.28;5025873;28;20560;-60
2023/06/12 06:58:48;;;;;;;7.38;5.10;;;;;;;18.96;63.79;97173.03;5026649;28;20465;-61
2023/06/12 07:01:15;;;;;;;7.38;4.93;;;;;;;19.09;64.28;97174.94;5027424;28;20045;-60
2023/06/12 07:03:42;;;;;;;9.05;5.88;;;;;;;19.24;62.91;97170.19;5029963;28;20527;-59
2023/06/12 07:06:09;;;;;;;7.68;5.15;;;;;;;19.29;63.46;97169.25;5023679;28;20033;-61
2023/06/12 07:08:36;;;;;;;8.15;5.25;;;;;;;19.41;62.87;97176.88;5025472;28;20042;-61
2023/06/12 07:11:02;;;;;;;11.02;6.15;;;;;;;19.40;61.43;97175.28;5028748;28;20056;-60
2023/06/12 07:13:29;;;;;;;9.63;5.05;;;;;;;19.35;62.52;97170.75;5027798;28;20076;-60
2023/06/12 07:15:55;;;;;;;6.82;5.13;;;;;;;19.35;61.89;97177.03;5028100;28;20264;-61
2023/06/12 07:18:26;;;;;;;7.05;5.55;;;;;;;19.56;62.12;97164.69;5026312;28;20073;-61
2023/06/12 07:20:53;;;;;;;9.68;5.90;;;;;;;19.78;61.43;97169.31;5023429;28;20051;-61
2023/06/12 07:23:20;;;;;;;6.57;5.28;;;;;;;19.78;61.08;97166.56;5026290;28;20041;-60
2023/06/12 07:25:46;;;;;;;8.52;6.22;;;;;;;19.91;60.13;97164.84;5024580;28;20049;-59
2023/06/12 07:28:13;;;;;;;7.57;5.07;;;;;;;19.96;59.89;97169.34;5027103;28;20132;-61
2023/06/12 07:30:39;;;;;;;7.00;5.10;;;;;;;20.17;59.73;97164.13;5032950;28;20128;-60
2023/06/12 07:33:06;;;;;;;9.88;5.10;;;;;;;20.36;58.00;97161.06;5027579;28;20420;-60
2023/06/12 07:35:33;;;;;;;8.20;5.35;;;;;;;20.35;57.95;97164.94;5033324;28;20068;-60
2023/06/12 07:38:00;;;;;;;7.00;5.18;;;;;;;20.28;58.21;97170.13;5032848;28;20071;-60
2023/06/12 07:40:27;;;;;;;7.90;5.38;;;;;;;20.45;56.73;97163.03;5034451;28;20053;-60
2023/06/12 07:42:53;;;;;;;7.72;5.55;;;;;;;20.52;56.29;97164.16;5030547;28;20099;-60
2023/06/12 07:45:20;;;;;;;6.95;4.78;;;;;;;20.54;56.72;97163.84;5030820;28;20428;-61
2023/06/12 07:47:49;;;;;;;8.43;5.30;;;;;;;20.55;56.36;97162.69;5030004;28;20057;-61
2023/06/12 07:50:19;;;;;;;8.93;5.40;;;;;;;20.59;56.96;97168.34;5031045;28;20136;-60
2023/06/12 07:52:46;;;;;;;8.43;5.60;;;;;;;20.59;56.63;97163.66;5032577;28;20284;-61
2023/06/12 07:55:14;;;;;;;9.02;4.95;;;;;;;20.59;56.68;97160.91;5027019;28;20049;-60
2023/06/12 07:57:41;;;;;;;8.68;5.55;;;;;;;20.64;55.83;97158.00;5027035;28;20045;-61
2023/06/12 08:00:09;;;;;;;8.27;5.63;;;;;;;20.67;56.40;97160.09;5027178;28;20041;-61
2023/06/12 08:02:46;;;;;;;7.93;5.25;;;;;;;20.67;57.22;97151.84;5035603;28;20123;-61
2023/06/12 08:05:13;;;;;;;7.82;5.78;;;;;;;20.79;56.18;97162.19;5027705;28;20050;-61
2023/06/12 08:07:41;;;;;;;8.40;5.75;;;;;;;20.71;56.68;97163.00;5028546;28;20082;-60
2023/06/12 08:10:08;;;;;;;12.25;5.28;;;;;;;20.74;54.70;97159.63;5033605;28;20080;-61
2023/06/12 08:12:35;;;;;;;8.13;5.53;;;;;;;20.66;55.78;97161.25;5023891;28;20546;-60
2023/06/12 08:15:02;;;;;;;7.78;5.13;;;;;;;20.66;56.04;97149.44;5028781;28;20060;-61
2023/06/12 08:17:29;;;;;;;9.73;5.35;;;;;;;20.76;56.45;97153.81;5031031;28;20543;-61
2023/06/12 08:19:57;;;;;;;6.65;4.55;;;;;;;20.90;55.79;97167.41;5033023;28;20037;-60
2023/06/12 08:22:23;;;;;;;6.20;5.00;;;;;;;21.00;54.44;97158.81;5032234;28;20049;-60
2023/06/12 08:24:50;;;;;;;7.50;5.35;;;;;;;21.12;55.52;97158.13;5031477;28;20084;-61
2023/06/12 08:27:16;;;;;;;7.30;5.13;;;;;;;21.18;53.65;97154.09;5031149;28;20444;-61
2023/06/12 08:29:43;;;;;;;8.07;5.05;;;;;;;21.24;52.66;97156.66;5030124;28;20047;-61
2023/06/12 08:32:10;;;;;;;9.50;4.93;;;;;;;21.31;52.30;97145.97;5031020;28;20053;-60
2023/06/12 08:34:37;;;;;;;8.70;5.22;;;;;;;21.43;52.14;97145.28;5025770;28;20312;-61
2023/06/12 08:37:03;;;;;;;6.07;4.30;;;;;;;21.44;51.60;97147.69;5033154;28;20045;-60
2023/06/12 08:39:31;;;;;;;10.13;5.07;;;;;;;21.44;52.05;97146.88;5033715;28;20064;-61
2023/06/12 08:42:04;;;;;;;6.90;4.50;;;;;;;21.62;50.69;97152.31;5026666;28;20540;-60
2023/06/12 08:44:31;;;;;;;7.72;4.55;;;;;;;21.64;49.91;97141.78;5027761;28;20037;-61
2023/06/12 08:47:00;;;;;;;8.77;7.47;;;;;;;21.81;50.31;97143.69;5028328;28;20045;-60
2023/06/12 08:49:28;;;;;;;6.18;4.47;;;;;;;21.92;49.60;97133.09;5027652;28;20041;-60
2023/06/12 08:51:55;;;;;;;7.35;4.55;;;;;;;22.06;48.60;97141.13;5027471;28;20523;-61
2023/06/12 08:54:21;;;;;;;7.22;4.65;;;;;;;22.21;47.71;97136.97;5028686;28;20052;-60
2023/06/12 08:56:50;;;;;;;6.70;4.45;;;;;;;22.25;47.02;97135.16;5033255;28;20036;-61
2023/06/12 08:59:17;;;;;;;17.58;4.95;;;;;;;22.31;45.34;97136.59;5027731;28;20045;-60
2023/06/12 09:01:45;;;;;;;8.73;4.68;;;;;;;22.25;44.55;97139.88;5027061;28;20041;-60
2023/06/12 09:05:02;;;;;;;11.23;4.53;;;;;;;22.07;43.23;97140.78;5029719;28;20045;-59
2023/06/12 09:07:37;;;;;;;7.18;4.85;;;;;;;22.23;42.72;97131.94;5028550;28;20129;-60
2023/06/12 09:10:05;;;;;;;6.13;4.20;;;;;;;22.52;41.72;97132.22;5023442;28;20052;-61
2023/06/12 09:12:43;;;;;;;8.02;4.38;;;;;;;22.59;41.86;97140.78;5026936;28;20064;-60
2023/06/12 09:15:21;;;;;;;7.00;4.60;;;;;;;22.78;42.68;97133.97;5029466;28;20046;-60
2023/06/12 09:17:52;;;;;;;7.18;4.22;;;;;;;22.85;42.11;97135.03;5031700;28;20484;-60
2023/06/12 09:20:33;;;;;;;5.60;4.25;;;;;;;22.87;42.13;97131.94;5028609;28;20535;-61
2023/06/12 09:23:10;;;;;;;5.78;4.35;;;;;;;22.72;41.33;97142.47;5025871;28;20076;-60
2023/06/12 09:25:41;;;;;;;5.80;4.25;;;;;;;22.63;41.89;97135.41;5030370;28;20033;-61
2023/06/12 09:28:27;;;;;;;6.38;4.35;;;;;;;22.61;42.46;97132.97;5026428;28;20459;-62
2023/06/12 09:30:54;;;;;;;11.30;4.50;;;;;;;22.79;43.19;97124.53;5026894;28;20083;-61
2023/06/12 09:33:31;;;;;;;8.13;4.20;;;;;;;23.10;42.65;97134.28;5033822;28;20050;-61
2023/06/12 09:35:59;;;;;;;6.97;4.28;;;;;;;22.98;42.06;97138.66;5022109;28;20464;-61
2023/06/12 09:38:33;;;;;;;7.97;4.50;;;;;;;22.93;42.26;97130.59;5028698;28;20040;-62
2023/06/12 09:41:02;;;;;;;10.95;4.70;;;;;;;22.97;42.45;97134.25;5029999;28;20044;-61
2023/06/12 09:43:30;;;;;;;5.80;4.30;;;;;;;22.96;42.17;97129.88;5028433;28;20120;-61
2023/06/12 09:45:57;;;;;;;8.35;4.88;;;;;;;22.83;41.12;97128.22;5026510;28;20412;-61
2023/06/12 09:48:31;;;;;;;6.03;4.13;;;;;;;23.02;40.93;97124.97;5033563;28;20042;-61
2023/06/12 09:51:04;;;;;;;5.25;4.22;;;;;;;23.40;41.58;97125.88;5029421;28;20540;-61
2023/06/12 09:53:35;;;;;;;6.75;4.40;;;;;;;23.19;41.83;97121.22;5025660;28;20100;-62
2023/06/12 09:56:05;;;;;;;5.47;4.28;;;;;;;23.44;40.87;97132.31;5027171;28;20431;-61
2023/06/12 09:58:36;;;;;;;6.80;4.40;;;;;;;23.64;40.40;97129.81;5027912;28;20033;-61
2023/06/12 10:01:07;;;;;;;6.22;4.55;;;;;;;23.68;39.58;97125.22;5028750;28;20045;-61
2023/06/12 10:03:37;;;;;;;6.80;4.25;;;;;;;23.66;39.99;97121.19;5034354;28;20566;-62
2023/06/12 10:06:06;;;;;;;6.03;4.18;;;;;;;23.66;39.29;97116.44;5032078;28;20128;-61
2023/06/12 10:08:34;;;;;;;7.13;4.63;;;;;;;23.79;38.50;97128.31;5028841;28;20390;-62
2023/06/12 10:11:03;;;;;;;5.55;4.47;;;;;;;23.80;38.40;97120.84;5026377;28;20124;-60
2023/06/12 10:13:30;;;;;;;5.18;3.70;;;;;;;23.77;38.51;97128.66;5023978;28;20048;-61
2023/06/12 10:15:58;;;;;;;5.88;4.28;;;;;;;23.84;38.58;97119.78;5038389;28;20052;-64
2023/06/12 10:18:26;;;;;;;5.25;4.13;;;;;;;23.95;37.95;97114.59;5033123;28;20047;-62
2023/06/12 10:20:53;;;;;;;6.97;4.35;;;;;;;24.06;37.60;97108.63;5028138;28;20078;-61
2023/06/12 10:23:21;;;;;;;5.60;4.72;;;;;;;24.32;37.64;97107.44;5026282;28;20069;-61
2023/06/12 10:25:49;;;;;;;5.60;4.13;;;;;;;24.19;36.75;97106.66;5026732;28;20041;-61
2023/06/12 10:28:16;;;;;;;6.22;4.32;;;;;;;24.44;37.34;97106.59;5025865;28;20385;-61
2023/06/12 10:31:17;;;;;;;7.38;4.07;;;;;;;24.34;36.85;97111.47;5026582;28;20228;-62
2023/06/12 10:33:58;;;;;;;;;;;;;;;24.08;37.91;97106.28;5028361;28;20037;-62
2023/06/12 10:36:24;;;;;;;6.55;4.65;;;;;;;24.10;37.09;97106.75;5025175;28;20012;-62
2023/06/12 10:39:04;;;;;;;6.10;4.72;;;;;;;24.18;36.51;97105.84;5030426;28;20039;-62
2023/06/12 10:41:33;;;;;;;4.97;3.70;;;;;;;23.86;35.44;97102.88;5027554;28;20048;-61
2023/06/12 10:44:22;;;;;;;5.07;3.80;;;;;;;24.00;36.31;97095.00;5025257;28;20038;-61
2023/06/12 10:46:48;;;;;;;6.53;3.80;;;;;;;24.19;35.55;97085.34;5025644;28;20217;-61
2023/06/12 10:49:17;;;;;;;6.28;3.85;;;;;;;24.01;35.37;97093.88;5029472;28;20072;-62
2023/06/12 10:51:48;;;;;;;7.18;4.13;;;;;;;24.09;36.08;97096.84;5024118;28;20045;-62
2023/06/12 10:54:15;;;;;;;;;;;;;;;24.24;35.83;97087.84;5028415;28;20049;-62
2023/06/12 10:56:58;;;;;;;4.80;3.72;;;;;;;24.42;35.95;97082.03;5027080;28;19932;-62
2023/06/12 10:59:44;;;;;;;5.40;3.92;;;;;;;24.34;35.78;97080.22;5026169;28;20052;-62
2023/06/12 11:02:11;;;;;;;7.28;4.10;;;;;;;24.58;35.37;97087.63;5025784;28;20044;-61
2023/06/12 11:04:39;;;;;;;5.00;3.60;;;;;;;24.90;35.37;97086.94;5023016;28;20064;-61
2023/06/12 11:07:06;;;;;;;5.75;3.83;;;;;;;25.11;33.94;97085.91;5025210;28;20052;-61
2023/06/12 11:09:39;;;;;;;6.15;4.03;;;;;;;25.02;33.79;97097.94;5027856;28;20535;-61
2023/06/12 11:12:10;;;;;;;5.57;3.97;;;;;;;25.06;32.89;97084.22;5030668;28;20049;-61
2023/06/12 11:14:36;;;;;;;5.13;3.70;;;;;;;24.87;33.52;97079.34;5024996;28;20134;-62
2023/06/12 11:17:03;;;;;;;9.52;4.20;;;;;;;24.76;34.34;97073.50;5026848;28;20060;-62
2023/06/12 11:19:30;;;;;;;7.45;4.05;;;;;;;24.57;34.77;97068.63;5027134;28;20045;-62
2023/06/12 11:21:57;;;;;;;6.60;4.10;;;;;;;24.38;34.61;97057.03;5025216;28;20065;-61
2023/06/12 11:24:26;;;;;;;7.63;4.25;;;;;;;24.63;35.06;97072.72;5027852;28;20475;-62
2023/06/12 11:26:53;;;;;;;7.07;3.80;;;;;;;24.93;33.24;97075.97;5029840;28;20137;-62
2023/06/12 11:29:25;;;;;;;5.68;3.90;;;;;;;25.06;32.83;97073.91;5031160;28;20049;-61
2023/06/12 11:32:04;;;;;;;7.70;4.45;;;;;;;25.08;33.29;97068.03;5027486;28;20409;-62
2023/06/12 11:34:35;;;;;;;5.40;3.67;;;;;;;25.10;32.82;97064.91;5026958;28;20037;-62
2023/06/12 11:37:20;;;;;;;7.60;4.05;;;;;;;25.28;32.78;97073.69;5023377;28;20073;-61
2023/06/12 11:39:58;;;;;;;4.85;3.40;;;;;;;25.38;31.46;97069.53;5026041;28;20037;-61
2023/06/12 11:42:24;;;;;;;7.43;3.95;;;;;;;25.22;31.79;97056.53;5024327;28;20119;-61
2023/06/12 11:44:51;;;;;;;7.05;3.85;;;;;;;25.40;31.60;97056.16;5026195;28;20056;-62